sensor_id;sensor_type;location;lat;lon;timestamp;pressure;altitude;pressure_sealevel;temperature;humidity
62712;BME280;48772;55.586;37.730;2022-12-07T00:01:08;100546.59;;;-8.63;100.00
62712;BME280;48772;55.586;37.730;2022-12-07T00:03:35;100569.16;;;-8.50;100.00
62712;BME280;48772;55.586;37.730;2022-12-07T00:06:03;100576.06;;;-8.49;100.00
62712;BME280;48772;55.586;37.730;2022-12-07T00:08:30;100571.66;;;-8.60;100.00
62712;BME280;48772;55.586;37.730;2022-12-07T00:11:08;100564.75;;;-8.58;100.00
62712;BME280;48772;55.586;37.730;2022-12-07T00:13:35;100576.91;;;-8.51;100.00
62712;BME280;48772;55.586;37.730;2022-12-07T00:16:02;100589.78;;;-8.54;100.00
62712;BME280;48772;55.586;37.730;2022-12-07T00:18:29;100586.38;;;-8.53;100.00
62712;BME280;48772;55.586;37.730;2022-12-07T00:21:03;100562.94;;;-8.65;100.00
62712;BME280;48772;55.586;37.730;2022-12-07T00:23:30;100551.69;;;-8.72;100.00
62712;BME280;48772;55.586;37.730;2022-12-07T00:25:56;100563.03;;;-8.59;100.00
62712;BME280;48772;55.586;37.730;2022-12-07T00:28:28;100576.91;;;-8.51;100.00
62712;BME280;48772;55.586;37.730;2022-12-07T00:31:00;100577.69;;;-8.58;100.00
62712;BME280;48772;55.586;37.730;2022-12-07T00:33:26;100578.63;;;-8.53;100.00
62712;BME280;48772;55.586;37.730;2022-12-07T00:35:58;100568.28;;;-8.53;100.00
62712;BME280;48772;55.586;37.730;2022-12-07T00:38:24;100568.19;;;-8.59;100.00
62712;BME280;48772;55.586;37.730;2022-12-07T00:40:57;100559.63;;;-8.55;100.00
62712;BME280;48772;55.586;37.730;2022-12-07T00:43:24;100582.06;;;-8.51;100.00
62712;BME280;48772;55.586;37.730;2022-12-07T00:45:50;100594.22;;;-8.43;100.00
62712;BME280;48772;55.586;37.730;2022-12-07T00:48:15;100589.00;;;-8.46;100.00
62712;BME280;48772;55.586;37.730;2022-12-07T00:50:41;100589.94;;;-8.38;100.00
62712;BME280;48772;55.586;37.730;2022-12-07T00:53:07;100534.47;;;-8.73;100.00
62712;BME280;48772;55.586;37.730;2022-12-07T00:55:36;100557.94;;;-8.53;100.00
62712;BME280;48772;55.586;37.730;2022-12-07T00:58:03;100501.50;;;-8.93;100.00
62712;BME280;48772;55.586;37.730;2022-12-07T01:00:30;100576.03;;;-8.53;100.00
62712;BME280;48772;55.586;37.730;2022-12-07T01:02:56;100585.56;;;-8.46;100.00
62712;BME280;48772;55.586;37.730;2022-12-07T01:05:22;100537.88;;;-8.77;100.00
62712;BME280;48772;55.586;37.730;2022-12-07T01:07:48;100558.59;;;-8.69;100.00
62712;BME280;48772;55.586;37.730;2022-12-07T01:10:14;100558.59;;;-8.69;100.00
62712;BME280;48772;55.586;37.730;2022-12-07T01:12:40;100584.63;;;-8.54;100.00
62712;BME280;48772;55.586;37.730;2022-12-07T01:15:08;100577.63;;;-8.63;100.00
62712;BME280;48772;55.586;37.730;2022-12-07T01:17:34;100559.47;;;-8.70;100.00
62712;BME280;48772;55.586;37.730;2022-12-07T01:20:00;100575.97;;;-8.58;100.00
62712;BME280;48772;55.586;37.730;2022-12-07T01:22:26;100546.53;;;-8.72;100.00
62712;BME280;48772;55.586;37.730;2022-12-07T01:24:52;100545.59;;;-8.78;100.00
62712;BME280;48772;55.586;37.730;2022-12-07T01:27:18;100582.81;;;-8.60;100.00
62712;BME280;48772;55.586;37.730;2022-12-07T01:29:44;100541.28;;;-8.78;100.00
62712;BME280;48772;55.586;37.730;2022-12-07T01:32:10;100536.81;;;-8.92;100.00
62712;BME280;48772;55.586;37.730;2022-12-07T01:34:36;100548.09;;;-8.84;100.00
62712;BME280;48772;55.586;37.730;2022-12-07T01:37:02;100542.13;;;-8.80;100.00
62712;BME280;48772;55.586;37.730;2022-12-07T01:39:28;100581.91;;;-8.66;100.00
62712;BME280;48772;55.586;37.730;2022-12-07T01:41:55;100581.78;;;-8.78;100.00
62712;BME280;48772;55.586;37.730;2022-12-07T01:46:54;100548.13;;;-8.83;100.00
62712;BME280;48772;55.586;37.730;2022-12-07T01:49:43;100563.75;;;-8.71;100.00
62712;BME280;48772;55.586;37.730;2022-12-07T01:52:31;100563.66;;;-8.81;100.00
62712;BME280;48772;55.586;37.730;2022-12-07T01:55:02;100545.41;;;-8.95;100.00
62712;BME280;48772;55.586;37.730;2022-12-07T01:57:31;100559.31;;;-8.85;100.00
62712;BME280;48772;55.586;37.730;2022-12-07T01:59:59;100555.84;;;-8.84;100.00
62712;BME280;48772;55.586;37.730;2022-12-07T02:02:54;100567.97;;;-8.80;100.00
62712;BME280;48772;55.586;37.730;2022-12-07T02:05:22;100528.09;;;-9.03;100.00
62712;BME280;48772;55.586;37.730;2022-12-07T02:07:51;100538.41;;;-9.03;100.00
62712;BME280;48772;55.586;37.730;2022-12-07T02:10:29;100549.66;;;-8.98;100.00
62712;BME280;48772;55.586;37.730;2022-12-07T02:24:52;100546.97;;;-9.07;100.00
62712;BME280;48772;55.586;37.730;2022-12-07T02:32:36;100552.09;;;-9.10;100.00
62712;BME280;48772;55.586;37.730;2022-12-07T02:35:08;100465.44;;;-9.59;100.00
62712;BME280;48772;55.586;37.730;2022-12-07T02:42:54;100539.91;;;-9.22;100.00
62712;BME280;48772;55.586;37.730;2022-12-07T02:45:22;100539.06;;;-9.19;100.00
62712;BME280;48772;55.586;37.730;2022-12-07T02:47:51;100525.91;;;-9.40;100.00
62712;BME280;48772;55.586;37.730;2022-12-07T02:50:21;100504.28;;;-9.47;100.00
62712;BME280;48772;55.586;37.730;2022-12-07T02:52:48;100515.50;;;-9.46;100.00
62712;BME280;48772;55.586;37.730;2022-12-07T02:55:15;100534.63;;;-9.32;100.00
62712;BME280;48772;55.586;37.730;2022-12-07T03:00:41;100512.06;;;-9.45;100.00
62712;BME280;48772;55.586;37.730;2022-12-07T03:03:12;100530.31;;;-9.32;100.00
62712;BME280;48772;55.586;37.730;2022-12-07T03:11:21;100503.38;;;-9.52;100.00
62712;BME280;48772;55.586;37.730;2022-12-07T03:14:23;100532.88;;;-9.33;100.00
62712;BME280;48772;55.586;37.730;2022-12-07T03:17:05;100512.88;;;-9.48;100.00
62712;BME280;48772;55.586;37.730;2022-12-07T03:19:34;100527.59;;;-9.42;100.00
62712;BME280;48772;55.586;37.730;2022-12-07T03:22:05;100533.56;;;-9.46;100.00
62712;BME280;48772;55.586;37.730;2022-12-07T03:24:47;100504.09;;;-9.62;100.00
62712;BME280;48772;55.586;37.730;2022-12-07T03:27:23;100536.19;;;-9.43;100.00
62712;BME280;48772;55.586;37.730;2022-12-07T03:29:54;100529.13;;;-9.56;100.00
62712;BME280;48772;55.586;37.730;2022-12-07T03:32:30;100539.59;;;-9.46;100.00
62712;BME280;48772;55.586;37.730;2022-12-07T03:35:14;100526.66;;;-9.49;100.00
62712;BME280;48772;55.586;37.730;2022-12-07T03:37:47;100501.50;;;-9.63;100.00
62712;BME280;48772;55.586;37.730;2022-12-07T03:40:23;100510.22;;;-9.55;100.00
62712;BME280;48772;55.586;37.730;2022-12-07T03:42:52;100512.00;;;-9.51;100.00
62712;BME280;48772;55.586;37.730;2022-12-07T03:45:23;100527.59;;;-9.42;100.00
62712;BME280;48772;55.586;37.730;2022-12-07T03:48:49;100513.66;;;-9.55;100.00
62712;BME280;48772;55.586;37.730;2022-12-07T03:51:02;100511.03;;;-9.59;100.00
62712;BME280;48772;55.586;37.730;2022-12-07T03:53:36;100500.63;;;-9.64;100.00
62712;BME280;48772;55.586;37.730;2022-12-07T03:56:06;100514.53;;;-9.54;100.00
62712;BME280;48772;55.586;37.730;2022-12-07T03:58:34;100526.72;;;-9.44;100.00
62712;BME280;48772;55.586;37.730;2022-12-07T04:01:00;100522.34;;;-9.47;100.00
62712;BME280;48772;55.586;37.730;2022-12-07T04:03:26;100508.47;;;-9.56;100.00
62712;BME280;48772;55.586;37.730;2022-12-07T04:05:53;100519.69;;;-9.54;100.00
62712;BME280;48772;55.586;37.730;2022-12-07T04:08:19;100534.31;;;-9.53;100.00
62712;BME280;48772;55.586;37.730;2022-12-07T04:10:45;100520.50;;;-9.58;100.00
62712;BME280;48772;55.586;37.730;2022-12-07T04:13:10;100520.50;;;-9.58;100.00
62712;BME280;48772;55.586;37.730;2022-12-07T04:15:36;100501.34;;;-9.74;100.00
62712;BME280;48772;55.586;37.730;2022-12-07T04:18:02;100518.78;;;-9.59;100.00
62712;BME280;48772;55.586;37.730;2022-12-07T04:20:28;100487.47;;;-9.83;100.00
62712;BME280;48772;55.586;37.730;2022-12-07T04:22:54;100513.44;;;-9.70;100.00
62712;BME280;48772;55.586;37.730;2022-12-07T04:25:20;100514.41;;;-9.62;100.00
62712;BME280;48772;55.586;37.730;2022-12-07T04:27:45;100518.69;;;-9.65;100.00
62712;BME280;48772;55.586;37.730;2022-12-07T04:30:11;100523.88;;;-9.62;100.00
62712;BME280;48772;55.586;37.730;2022-12-07T04:32:37;100475.38;;;-9.87;100.00
62712;BME280;48772;55.586;37.730;2022-12-07T04:35:04;100518.69;;;-9.65;100.00
62712;BME280;48772;55.586;37.730;2022-12-07T04:37:30;100492.63;;;-9.83;100.00
62712;BME280;48772;55.586;37.730;2022-12-07T04:39:56;100501.38;;;-9.72;100.00
62712;BME280;48772;55.586;37.730;2022-12-07T04:42:22;100475.44;;;-9.84;100.00
62712;BME280;48772;55.586;37.730;2022-12-07T04:44:48;100514.25;;;-9.74;100.00
62712;BME280;48772;55.586;37.730;2022-12-07T04:47:16;100507.22;;;-9.84;100.00
62712;BME280;48772;55.586;37.730;2022-12-07T04:49:42;100469.97;;;-10.04;100.00
62712;BME280;48772;55.586;37.730;2022-12-07T04:52:08;100511.56;;;-9.83;100.00
62712;BME280;48772;55.586;37.730;2022-12-07T04:54:34;100486.31;;;-10.06;100.00
62712;BME280;48772;55.586;37.730;2022-12-07T04:57:00;100516.47;;;-9.99;100.00
62712;BME280;48772;55.586;37.730;2022-12-07T04:59:25;100488.59;;;-10.24;100.00
62712;BME280;48772;55.586;37.730;2022-12-07T05:01:51;100511.94;;;-10.15;100.00
62712;BME280;48772;55.586;37.730;2022-12-07T05:04:18;100511.94;;;-10.15;100.00
62712;BME280;48772;55.586;37.730;2022-12-07T05:06:44;100514.50;;;-10.15;100.00
62712;BME280;48772;55.586;37.730;2022-12-07T05:09:10;100527.47;;;-10.12;100.00
62712;BME280;48772;55.586;37.730;2022-12-07T05:11:36;100519.78;;;-10.09;100.00
62712;BME280;48772;55.586;37.730;2022-12-07T05:14:25;100524.09;;;-10.07;100.00
62712;BME280;48772;55.586;37.730;2022-12-07T05:16:51;100465.09;;;-10.44;100.00
62712;BME280;48772;55.586;37.730;2022-12-07T05:19:19;100479.13;;;-10.27;100.00
62712;BME280;48772;55.586;37.730;2022-12-07T05:21:46;100513.69;;;-10.14;100.00
62712;BME280;48772;55.586;37.730;2022-12-07T05:24:13;100526.72;;;-10.05;100.00
62712;BME280;48772;55.586;37.730;2022-12-07T05:26:43;100494.75;;;-10.16;100.00
62712;BME280;48772;55.586;37.730;2022-12-07T05:29:22;100511.88;;;-10.20;100.00
62712;BME280;48772;55.586;37.730;2022-12-07T05:31:54;100444.44;;;-10.47;100.00
62712;BME280;48772;55.586;37.730;2022-12-07T05:34:20;100524.13;;;-10.04;100.00
62712;BME280;48772;55.586;37.730;2022-12-07T05:36:55;100519.84;;;-10.02;100.00
62712;BME280;48772;55.586;37.730;2022-12-07T05:39:21;100483.41;;;-10.27;100.00
62712;BME280;48772;55.586;37.730;2022-12-07T05:41:47;100530.16;;;-10.02;100.00
62712;BME280;48772;55.586;37.730;2022-12-07T05:44:32;100519.06;;;-9.98;100.00
62712;BME280;48772;55.586;37.730;2022-12-07T05:46:58;100474.00;;;-10.24;100.00
62712;BME280;48772;55.586;37.730;2022-12-07T05:49:24;100494.78;;;-10.15;100.00
62712;BME280;48772;55.586;37.730;2022-12-07T05:51:50;100505.19;;;-10.09;100.00
62712;BME280;48772;55.586;37.730;2022-12-07T05:54:17;100473.22;;;-10.20;100.00
62712;BME280;48772;55.586;37.730;2022-12-07T05:56:47;100434.94;;;-10.49;100.00
62712;BME280;48772;55.586;37.730;2022-12-07T05:59:15;100462.81;;;-10.26;100.00
62712;BME280;48772;55.586;37.730;2022-12-07T06:01:59;100518.25;;;-9.95;100.00
62712;BME280;48772;55.586;37.730;2022-12-07T06:04:32;100480.19;;;-10.14;100.00
62712;BME280;48772;55.586;37.730;2022-12-07T06:06:58;100516.56;;;-9.92;100.00
62712;BME280;48772;55.586;37.730;2022-12-07T06:09:25;100459.53;;;-10.16;100.00
62712;BME280;48772;55.586;37.730;2022-12-07T06:11:52;100491.47;;;-10.05;100.00
62712;BME280;48772;55.586;37.730;2022-12-07T06:14:37;100468.16;;;-10.12;100.00
62712;BME280;48772;55.586;37.730;2022-12-07T06:17:03;100449.19;;;-10.17;100.00
62712;BME280;48772;55.586;37.730;2022-12-07T06:19:29;100515.13;;;-9.73;100.00
62712;BME280;48772;55.586;37.730;2022-12-07T06:21:56;100521.13;;;-9.76;100.00
62712;BME280;48772;55.586;37.730;2022-12-07T06:24:22;100527.13;;;-9.75;100.00
62712;BME280;48772;55.586;37.730;2022-12-07T06:26:49;100518.53;;;-9.76;100.00
62712;BME280;48772;55.586;37.730;2022-12-07T06:29:18;100520.28;;;-9.73;100.00
62712;BME280;48772;55.586;37.730;2022-12-07T06:31:44;100481.28;;;-9.94;100.00
62712;BME280;48772;55.586;37.730;2022-12-07T06:34:16;100468.28;;;-10.00;100.00
62712;BME280;48772;55.586;37.730;2022-12-07T06:36:42;100521.91;;;-9.78;100.00
62712;BME280;48772;55.586;37.730;2022-12-07T06:39:10;100483.00;;;-9.95;100.00
62712;BME280;48772;55.586;37.730;2022-12-07T06:41:40;100528.06;;;-9.69;100.00
62712;BME280;48772;55.586;37.730;2022-12-07T06:44:06;100518.59;;;-9.71;100.00
62712;BME280;48772;55.586;37.730;2022-12-07T06:46:33;100495.31;;;-9.76;100.00
62712;BME280;48772;55.586;37.730;2022-12-07T06:49:01;100490.00;;;-9.86;100.00
62712;BME280;48772;55.586;37.730;2022-12-07T06:51:28;100512.56;;;-9.72;100.00
62712;BME280;48772;55.586;37.730;2022-12-07T06:53:55;100447.63;;;-10.08;100.00
62712;BME280;48772;55.586;37.730;2022-12-07T06:56:21;100469.28;;;-9.94;100.00
62712;BME280;48772;55.586;37.730;2022-12-07T06:58:48;100503.00;;;-9.80;100.00
62712;BME280;48772;55.586;37.730;2022-12-07T07:01:18;100494.34;;;-9.82;100.00
62712;BME280;48772;55.586;37.730;2022-12-07T07:03:47;100488.31;;;-9.84;100.00
62712;BME280;48772;55.586;37.730;2022-12-07T07:06:38;100520.59;;;-9.49;100.00
62712;BME280;48772;55.586;37.730;2022-12-07T07:09:13;100483.63;;;-8.72;100.00
62712;BME280;48772;55.586;37.730;2022-12-07T07:11:43;100468.00;;;-7.68;100.00
62712;BME280;48772;55.586;37.730;2022-12-07T07:14:09;100426.72;;;-7.44;100.00
62712;BME280;48772;55.586;37.730;2022-12-07T07:16:35;100445.91;;;-6.60;100.00
62712;BME280;48772;55.586;37.730;2022-12-07T07:19:01;100454.56;;;-6.30;100.00
62712;BME280;48772;55.586;37.730;2022-12-07T07:21:27;100495.16;;;-5.78;100.00
62712;BME280;48772;55.586;37.730;2022-12-07T07:23:53;100472.63;;;-5.67;100.00
62712;BME280;48772;55.586;37.730;2022-12-07T07:26:19;100478.38;;;-4.91;100.00
62712;BME280;48772;55.586;37.730;2022-12-07T07:28:45;100480.88;;;-4.75;100.00
62712;BME280;48772;55.586;37.730;2022-12-07T07:31:11;100482.25;;;-4.24;100.00
62712;BME280;48772;55.586;37.730;2022-12-07T07:33:37;100468.59;;;-4.55;100.00
62712;BME280;48772;55.586;37.730;2022-12-07T07:36:05;100474.66;;;-4.50;100.00
62712;BME280;48772;55.586;37.730;2022-12-07T07:38:32;100451.09;;;-4.32;100.00
62712;BME280;48772;55.586;37.730;2022-12-07T07:41:01;100480.22;;;-3.88;100.00
62712;BME280;48772;55.586;37.730;2022-12-07T07:43:27;100467.13;;;-3.82;100.00
62712;BME280;48772;55.586;37.730;2022-12-07T07:45:53;100416.13;;;-4.07;100.00
62712;BME280;48772;55.586;37.730;2022-12-07T07:48:19;100432.31;;;-3.75;100.00
62712;BME280;48772;55.586;37.730;2022-12-07T07:50:46;100470.97;;;-3.34;99.14
62712;BME280;48772;55.586;37.730;2022-12-07T07:53:12;100409.38;;;-3.44;92.47
62712;BME280;48772;55.586;37.730;2022-12-07T07:55:38;100473.44;;;-2.57;88.63
62712;BME280;48772;55.586;37.730;2022-12-07T07:58:05;100446.19;;;-3.00;86.72
62712;BME280;48772;55.586;37.730;2022-12-07T08:00:51;100463.00;;;-2.58;85.44
62712;BME280;48772;55.586;37.730;2022-12-07T08:03:17;100444.22;;;-2.81;82.75
62712;BME280;48772;55.586;37.730;2022-12-07T08:05:43;100431.91;;;-2.73;77.43
62712;BME280;48772;55.586;37.730;2022-12-07T08:08:09;100467.28;;;-2.54;75.71
62712;BME280;48772;55.586;37.730;2022-12-07T08:10:38;100433.16;;;-1.91;73.67
62712;BME280;48772;55.586;37.730;2022-12-07T08:13:05;100440.97;;;-2.41;72.55
62712;BME280;48772;55.586;37.730;2022-12-07T08:16:08;100430.28;;;-1.76;71.81
62712;BME280;48772;55.586;37.730;2022-12-07T08:18:36;100409.44;;;-1.80;69.21
62712;BME280;48772;55.586;37.730;2022-12-07T08:21:04;100443.97;;;-1.63;66.24
62712;BME280;48772;55.586;37.730;2022-12-07T08:23:32;100391.13;;;-1.80;67.39
62712;BME280;48772;55.586;37.730;2022-12-07T08:26:22;100400.78;;;-1.38;64.06
62712;BME280;48772;55.586;37.730;2022-12-07T08:28:48;100429.59;;;-1.41;62.80
62712;BME280;48772;55.586;37.730;2022-12-07T08:31:20;100414.94;;;-1.07;59.88
62712;BME280;48772;55.586;37.730;2022-12-07T08:34:11;100431.94;;;-0.88;57.79
62712;BME280;48772;55.586;37.730;2022-12-07T08:37:41;100384.72;;;-0.82;55.97
62712;BME280;48772;55.586;37.730;2022-12-07T08:40:14;100378.63;;;-1.22;55.39
62712;BME280;48772;55.586;37.730;2022-12-07T08:42:57;100393.72;;;-0.57;55.62
62712;BME280;48772;55.586;37.730;2022-12-07T08:45:23;100390.56;;;-1.09;54.37
62712;BME280;48772;55.586;37.730;2022-12-07T08:48:17;100371.63;;;-1.20;54.80
62712;BME280;48772;55.586;37.730;2022-12-07T08:51:34;100357.34;;;-0.34;53.26
62712;BME280;48772;55.586;37.730;2022-12-07T08:54:14;100356.06;;;-0.53;52.22
62712;BME280;48772;55.586;37.730;2022-12-07T08:56:42;100358.69;;;-0.18;51.06
62712;BME280;48772;55.586;37.730;2022-12-07T08:59:10;100415.03;;;0.32;50.35
62712;BME280;48772;55.586;37.730;2022-12-07T09:01:40;100384.53;;;0.58;48.49
62712;BME280;48772;55.586;37.730;2022-12-07T09:04:06;100381.66;;;0.67;48.19
62712;BME280;48772;55.586;37.730;2022-12-07T09:06:33;100384.50;;;0.89;46.89
62712;BME280;48772;55.586;37.730;2022-12-07T09:09:00;100376.72;;;0.57;47.05
62712;BME280;48772;55.586;37.730;2022-12-07T09:11:30;100378.50;;;-0.08;47.82
62712;BME280;48772;55.586;37.730;2022-12-07T09:13:56;100364.69;;;0.19;47.74
62712;BME280;48772;55.586;37.730;2022-12-07T09:16:23;100361.38;;;-0.21;47.77
62712;BME280;48772;55.586;37.730;2022-12-07T09:18:49;100371.47;;;0.26;47.44
62712;BME280;48772;55.586;37.730;2022-12-07T09:21:15;100371.53;;;0.84;46.84
62712;BME280;48772;55.586;37.730;2022-12-07T09:23:42;100367.06;;;0.27;46.95
62712;BME280;48772;55.586;37.730;2022-12-07T09:26:08;100396.44;;;0.39;46.55
62712;BME280;48772;55.586;37.730;2022-12-07T09:28:34;100394.59;;;0.12;46.18
62712;BME280;48772;55.586;37.730;2022-12-07T09:31:02;100346.44;;;-0.18;45.96
62712;BME280;48772;55.586;37.730;2022-12-07T09:33:28;100396.66;;;-0.01;46.55
62712;BME280;48772;55.586;37.730;2022-12-07T09:35:54;100380.56;;;-0.21;46.97
62712;BME280;48772;55.586;37.730;2022-12-07T09:38:21;100399.75;;;0.15;46.12
62712;BME280;48772;55.586;37.730;2022-12-07T09:40:47;100379.34;;;0.26;46.94
62712;BME280;48772;55.586;37.730;2022-12-07T09:43:20;100320.16;;;-0.15;46.56
62712;BME280;48772;55.586;37.730;2022-12-07T09:46:08;100347.69;;;-0.32;47.00
62712;BME280;48772;55.586;37.730;2022-12-07T09:48:38;100348.69;;;0.28;46.30
62712;BME280;48772;55.586;37.730;2022-12-07T09:51:29;100344.00;;;0.39;46.27
62712;BME280;48772;55.586;37.730;2022-12-07T09:54:00;100353.16;;;0.25;46.46
62712;BME280;48772;55.586;37.730;2022-12-07T09:56:29;100341.56;;;0.33;45.48
62712;BME280;48772;55.586;37.730;2022-12-07T09:59:01;100346.69;;;0.36;45.36
62712;BME280;48772;55.586;37.730;2022-12-07T10:01:31;100338.94;;;-0.66;46.86
62712;BME280;48772;55.586;37.730;2022-12-07T10:04:15;100375.31;;;-0.54;46.16
62712;BME280;48772;55.586;37.730;2022-12-07T10:06:43;100358.50;;;-0.12;47.98
62712;BME280;48772;55.586;37.730;2022-12-07T10:09:15;100297.59;;;-0.20;46.88
62712;BME280;48772;55.586;37.730;2022-12-07T10:12:21;100345.56;;;0.75;46.29
62712;BME280;48772;55.586;37.730;2022-12-07T10:18:20;100323.59;;;0.18;45.68
62712;BME280;48772;55.586;37.730;2022-12-07T10:23:30;100307.53;;;-0.33;46.83
62712;BME280;48772;55.586;37.730;2022-12-07T10:25:56;100341.38;;;-0.24;48.49
62712;BME280;48772;55.586;37.730;2022-12-07T10:28:23;100347.63;;;0.03;46.58
62712;BME280;48772;55.586;37.730;2022-12-07T10:31:16;100347.19;;;-0.13;46.09
62712;BME280;48772;55.586;37.730;2022-12-07T10:33:54;100314.84;;;-0.45;47.04
62712;BME280;48772;55.586;37.730;2022-12-07T10:36:25;100330.13;;;-0.62;47.37
62712;BME280;48772;55.586;37.730;2022-12-07T10:39:19;100350.16;;;-0.28;47.53
62712;BME280;48772;55.586;37.730;2022-12-07T10:44:23;100288.09;;;-0.91;48.79
62712;BME280;48772;55.586;37.730;2022-12-07T10:54:52;100283.13;;;-0.68;47.94
62712;BME280;48772;55.586;37.730;2022-12-07T11:05:43;100321.88;;;-1.19;49.67
62712;BME280;48772;55.586;37.730;2022-12-07T11:08:37;100329.41;;;-1.05;50.17
62712;BME280;48772;55.586;37.730;2022-12-07T11:22:55;100273.38;;;-1.73;52.27
62712;BME280;48772;55.586;37.730;2022-12-07T11:25:32;100291.00;;;-1.82;54.01
62712;BME280;48772;55.586;37.730;2022-12-07T11:33:15;100300.56;;;-1.81;54.87
62712;BME280;48772;55.586;37.730;2022-12-07T11:38:17;100301.31;;;-2.19;55.13
62712;BME280;48772;55.586;37.730;2022-12-07T11:40:49;100302.22;;;-2.21;57.97
62712;BME280;48772;55.586;37.730;2022-12-07T11:43:32;100297.72;;;-2.13;58.85
62712;BME280;48772;55.586;37.730;2022-12-07T11:46:04;100280.19;;;-2.52;58.89
62712;BME280;48772;55.586;37.730;2022-12-07T11:48:43;100245.41;;;-2.54;61.18
62712;BME280;48772;55.586;37.730;2022-12-07T11:51:11;100272.78;;;-2.78;60.77
62712;BME280;48772;55.586;37.730;2022-12-07T11:53:41;100268.16;;;-2.15;60.60
62712;BME280;48772;55.586;37.730;2022-12-07T11:56:24;100304.09;;;-2.28;58.96
62712;BME280;48772;55.586;37.730;2022-12-07T11:59:38;100282.66;;;-2.46;61.94
62712;BME280;48772;55.586;37.730;2022-12-07T12:02:16;100292.66;;;-2.69;64.28
62712;BME280;48772;55.586;37.730;2022-12-07T12:07:19;100278.16;;;-2.85;71.25
62712;BME280;48772;55.586;37.730;2022-12-07T12:09:54;100237.28;;;-2.86;68.40
62712;BME280;48772;55.586;37.730;2022-12-07T12:18:04;100264.22;;;-2.86;71.25
62712;BME280;48772;55.586;37.730;2022-12-07T12:20:49;100252.19;;;-2.93;72.22
62712;BME280;48772;55.586;37.730;2022-12-07T12:23:21;100282.16;;;-3.19;74.93
62712;BME280;48772;55.586;37.730;2022-12-07T12:26:00;100257.94;;;-3.27;81.40
62712;BME280;48772;55.586;37.730;2022-12-07T12:28:32;100267.41;;;-3.20;80.41
62712;BME280;48772;55.586;37.730;2022-12-07T12:33:54;100266.63;;;-3.88;89.81
62712;BME280;48772;55.586;37.730;2022-12-07T12:39:09;100232.78;;;-4.62;100.00
62712;BME280;48772;55.586;37.730;2022-12-07T12:46:53;100269.44;;;-4.86;100.00
62712;BME280;48772;55.586;37.730;2022-12-07T12:51:48;100240.41;;;-5.40;100.00
62712;BME280;48772;55.586;37.730;2022-12-07T13:01:48;100243.56;;;-6.29;100.00
62712;BME280;48772;55.586;37.730;2022-12-07T13:04:37;100259.06;;;-6.21;100.00
62712;BME280;48772;55.586;37.730;2022-12-07T13:07:07;100262.59;;;-6.45;100.00
62712;BME280;48772;55.586;37.730;2022-12-07T13:09:35;100264.31;;;-6.35;100.00
62712;BME280;48772;55.586;37.730;2022-12-07T13:12:12;100272.13;;;-6.57;100.00
62712;BME280;48772;55.586;37.730;2022-12-07T13:19:59;100280.81;;;-6.69;100.00
62712;BME280;48772;55.586;37.730;2022-12-07T13:25:03;100261.81;;;-6.87;100.00
62712;BME280;48772;55.586;37.730;2022-12-07T13:27:32;100273.91;;;-6.73;100.00
62712;BME280;48772;55.586;37.730;2022-12-07T13:29:58;100254.91;;;-6.93;100.00
62712;BME280;48772;55.586;37.730;2022-12-07T13:32:27;100227.31;;;-7.09;100.00
62712;BME280;48772;55.586;37.730;2022-12-07T13:34:53;100247.19;;;-6.97;100.00
62712;BME280;48772;55.586;37.730;2022-12-07T13:37:26;100253.19;;;-7.00;100.00
62712;BME280;48772;55.586;37.730;2022-12-07T13:39:55;100254.06;;;-7.22;100.00
62712;BME280;48772;55.586;37.730;2022-12-07T13:42:32;100261.00;;;-7.20;100.00
62712;BME280;48772;55.586;37.730;2022-12-07T13:45:13;100196.22;;;-7.48;100.00
62712;BME280;48772;55.586;37.730;2022-12-07T13:47:52;100265.31;;;-7.14;100.00
62712;BME280;48772;55.586;37.730;2022-12-07T13:50:28;100244.59;;;-7.32;100.00
62712;BME280;48772;55.586;37.730;2022-12-07T13:53:01;100206.59;;;-7.57;100.00
62712;BME280;48772;55.586;37.730;2022-12-07T13:55:29;100240.25;;;-7.42;100.00
62712;BME280;48772;55.586;37.730;2022-12-07T13:57:55;100247.16;;;-7.50;100.00
62712;BME280;48772;55.586;37.730;2022-12-07T14:00:24;100209.19;;;-7.59;100.00
62712;BME280;48772;55.586;37.730;2022-12-07T14:05:41;100177.25;;;-7.83;100.00
62712;BME280;48772;55.586;37.730;2022-12-07T14:10:39;100248.03;;;-7.44;100.00
62712;BME280;48772;55.586;37.730;2022-12-07T14:13:28;100217.81;;;-7.61;100.00
62712;BME280;48772;55.586;37.730;2022-12-07T14:15:55;100229.03;;;-7.65;100.00
62712;BME280;48772;55.586;37.730;2022-12-07T14:18:48;100222.97;;;-7.70;100.00
62712;BME280;48772;55.586;37.730;2022-12-07T14:23:40;100199.63;;;-7.97;100.00
62712;BME280;48772;55.586;37.730;2022-12-07T14:26:14;100262.66;;;-7.73;100.00
62712;BME280;48772;55.586;37.730;2022-12-07T14:28:42;100222.94;;;-7.96;100.00
62712;BME280;48772;55.586;37.730;2022-12-07T14:31:17;100254.03;;;-7.78;100.00
62712;BME280;48772;55.586;37.730;2022-12-07T14:33:44;100251.41;;;-7.73;100.00
62712;BME280;48772;55.586;37.730;2022-12-07T14:36:12;100218.59;;;-8.01;100.00
62712;BME280;48772;55.586;37.730;2022-12-07T14:38:38;100210.84;;;-8.03;100.00
62712;BME280;48772;55.586;37.730;2022-12-07T14:41:17;100234.16;;;-7.89;100.00
62712;BME280;48772;55.586;37.730;2022-12-07T14:44:12;100252.28;;;-7.83;100.00
62712;BME280;48772;55.586;37.730;2022-12-07T14:46:39;100210.78;;;-8.18;100.00
62712;BME280;48772;55.586;37.730;2022-12-07T14:49:05;100241.91;;;-7.79;100.00
62712;BME280;48772;55.586;37.730;2022-12-07T14:51:32;100244.50;;;-7.80;100.00
62712;BME280;48772;55.586;37.730;2022-12-07T14:53:59;100175.44;;;-8.26;100.00
62712;BME280;48772;55.586;37.730;2022-12-07T14:56:26;100177.16;;;-8.37;100.00